Terminal Aerodrome Forecast
Issued by NWS

Home | Current Version | Previous Version | Text Only | Print | Product List | Glossary Off
Versions: 1 2 3 4 5 6 7 8 9 10 11 12 13 14 15

000
FTUS45 KGGW 251300 AAA
TAFSDY
TAF AMD
KSDY 251352Z 2514/2612 36014KT P6SM VCSH SCT025 BKN035
      TEMPO 2515/2517 BKN025
     FM251800 01013KT P6SM BKN016 BKN030
     FM260000 36011KT P6SM SCT030
     FM260900 36007KT P6SM FEW035
      AMD LTD TO CLD VIS AND WIND=

USA.gov is the U.S. government's official web portal to all federal, state and local government web resources and services.